^^
Your Local Weather - Clay, NY Station Historical Data
Daily Summary for February 15, 2018 Units:  Both    English   Metric
« Previous Day
Next Day »
Daily Weekly Monthly Yearly Custom
  High: Low: Average:
Temperature: 57.7 °F /  14.3 °C 25.1 °F /  -3.8 °C 43.3 °F /  6.3 °C
Dew Point: 45.9 °F /  7.7 °C 22.6 °F /  -5.2 °C 37.6 °F /  3.1 °C
Humidity: 92% 57% 82%
Wind Speed: 7.0mph /  11.3km/h - 1.3mph /  2.1km/h
Wind Gust: 14.0mph /  22.5km/h - -
Wind- - SW
Pressure: 29.91 in /  1012.8 hPa 29.57 in /  1001.2 hPa -
Precipitation: 0.01 in /  0.25 mm    
Historical Graphs
 
 
Tabular Data for February 15, 2018
Time Temperature Dew Point Pressure Wind Wind Speed Wind Gust Humidity Rainfall Rate (Hourly) solar
00:00 27.6 °F /  -2.4 °C 25.1 °F /  -3.8 °C 29.91in /  1012.8hPa Calm     90% 0.00in /  0mm 0 W/m2
00:06 27.2 °F /  -2.7 °C 24.7 °F /  -4.1 °C 29.91in /  1012.8hPa Calm     90% 0.00in /  0mm 0 W/m2
00:12 27.0 °F /  -2.8 °C 24.5 °F /  -4.2 °C 29.91in /  1012.8hPa Calm     90% 0.00in /  0mm 0 W/m2
00:18 26.8 °F /  -2.9 °C 24.3 °F /  -4.3 °C 29.90in /  1012.4hPa Calm     90% 0.00in /  0mm 0 W/m2
00:24 26.6 °F /  -3 °C 24.1 °F /  -4.4 °C 29.91in /  1012.8hPa Calm     90% 0.00in /  0mm 0 W/m2
00:30 26.5 °F /  -3.1 °C 24.0 °F /  -4.4 °C 29.91in /  1012.8hPa Calm     90% 0.00in /  0mm 0 W/m2
00:36 26.3 °F /  -3.2 °C 23.8 °F /  -4.6 °C 29.90in /  1012.4hPa Calm     90% 0.00in /  0mm 0 W/m2
00:42 25.9 °F /  -3.4 °C 23.4 °F /  -4.8 °C 29.90in /  1012.4hPa Calm     90% 0.00in /  0mm 0 W/m2
00:48 25.8 °F /  -3.4 °C 23.3 °F /  -4.8 °C 29.90in /  1012.4hPa Calm     90% 0.00in /  0mm 0 W/m2
00:54 25.7 °F /  -3.5 °C 23.2 °F /  -4.9 °C 29.90in /  1012.4hPa Calm     90% 0.00in /  0mm 0 W/m2
01:00 25.8 °F /  -3.4 °C 23.3 °F /  -4.8 °C 29.89in /  1012.1hPa Calm     90% 0.00in /  0mm 0 W/m2
01:06 25.9 °F /  -3.4 °C 23.6 °F /  -4.7 °C 29.89in /  1012.1hPa Calm     91% 0.00in /  0mm 0 W/m2
01:12 26.0 °F /  -3.3 °C 23.7 °F /  -4.6 °C 29.89in /  1012.1hPa Calm     91% 0.00in /  0mm 0 W/m2
01:18 25.9 °F /  -3.4 °C 23.4 °F /  -4.8 °C 29.89in /  1012.1hPa Calm     90% 0.00in /  0mm 0 W/m2
01:24 25.6 °F /  -3.6 °C 23.1 °F /  -4.9 °C 29.88in /  1011.7hPa Calm     90% 0.00in /  0mm 0 W/m2
01:30 25.3 °F /  -3.7 °C 23.0 °F /  -5 °C 29.88in /  1011.7hPa Calm     91% 0.00in /  0mm 0 W/m2
01:36 25.1 °F /  -3.8 °C 22.6 °F /  -5.2 °C 29.88in /  1011.7hPa Calm     90% 0.00in /  0mm 0 W/m2
01:42 25.1 °F /  -3.8 °C 22.6 °F /  -5.2 °C 29.88in /  1011.7hPa Calm     90% 0.00in /  0mm 0 W/m2
01:48 25.2 °F /  -3.8 °C 22.9 °F /  -5.1 °C 29.88in /  1011.7hPa Calm     91% 0.00in /  0mm 0 W/m2
01:54 25.2 °F /  -3.8 °C 22.9 °F /  -5.1 °C 29.88in /  1011.7hPa Calm     91% 0.00in /  0mm 0 W/m2
02:00 25.3 °F /  -3.7 °C 23.0 °F /  -5 °C 29.88in /  1011.7hPa Calm     91% 0.00in /  0mm 0 W/m2
02:06 25.4 °F /  -3.7 °C 23.1 °F /  -4.9 °C 29.88in /  1011.7hPa Calm     91% 0.00in /  0mm 0 W/m2
02:12 25.4 °F /  -3.7 °C 23.1 °F /  -4.9 °C 29.87in /  1011.4hPa Calm     91% 0.00in /  0mm 0 W/m2
02:18 25.3 °F /  -3.7 °C 23.0 °F /  -5 °C 29.87in /  1011.4hPa Calm     91% 0.00in /  0mm 0 W/m2
02:24 25.3 °F /  -3.7 °C 23.0 °F /  -5 °C 29.87in /  1011.4hPa Calm     91% 0.00in /  0mm 0 W/m2
02:30 25.5 °F /  -3.6 °C 23.2 °F /  -4.9 °C 29.87in /  1011.4hPa Calm     91% 0.00in /  0mm 0 W/m2
02:36 25.9 °F /  -3.4 °C 23.6 °F /  -4.7 °C 29.87in /  1011.4hPa Calm     91% 0.00in /  0mm 0 W/m2
02:42 26.4 °F /  -3.1 °C 24.1 °F /  -4.4 °C 29.86in /  1011.1hPa Calm     91% 0.00in /  0mm 0 W/m2
02:48 26.7 °F /  -2.9 °C 24.4 °F /  -4.2 °C 29.85in /  1010.7hPa Calm     91% 0.00in /  0mm 0 W/m2
02:54 27.1 °F /  -2.7 °C 24.8 °F /  -4 °C 29.85in /  1010.7hPa Calm     91% 0.00in /  0mm 0 W/m2
03:00 27.7 °F /  -2.4 °C 25.4 °F /  -3.7 °C 29.85in /  1010.7hPa Calm     91% 0.00in /  0mm 0 W/m2
03:06 28.0 °F /  -2.2 °C 25.7 °F /  -3.5 °C 29.85in /  1010.7hPa Calm     91% 0.00in /  0mm 0 W/m2
03:12 28.3 °F /  -2.1 °C 26.3 °F /  -3.2 °C 29.85in /  1010.7hPa Calm     92% 0.00in /  0mm 0 W/m2
03:18 28.7 °F /  -1.8 °C 26.7 °F /  -2.9 °C 29.84in /  1010.4hPa Calm     92% 0.00in /  0mm 0 W/m2
03:24 29.0 °F /  -1.7 °C 27.0 °F /  -2.8 °C 29.84in /  1010.4hPa Calm   1.0mph /  1.6km/h 92% 0.00in /  0mm 0 W/m2
03:30 29.6 °F /  -1.3 °C 27.6 °F /  -2.4 °C 29.84in /  1010.4hPa Calm     92% 0.00in /  0mm 0 W/m2
03:36 30.0 °F /  -1.1 °C 28.0 °F /  -2.2 °C 29.84in /  1010.4hPa Calm     92% 0.00in /  0mm 0 W/m2
03:42 30.4 °F /  -0.9 °C 28.4 °F /  -2 °C 29.83in /  1010hPa Calm     92% 0.00in /  0mm 0 W/m2
03:48 30.7 °F /  -0.7 °C 28.7 °F /  -1.8 °C 29.82in /  1009.7hPa Calm   2.0mph /  3.2km/h 92% 0.00in /  0mm 0 W/m2
03:54 31.2 °F /  -0.4 °C 29.1 °F /  -1.6 °C 29.82in /  1009.7hPa Calm   1.0mph /  1.6km/h 92% 0.00in /  0mm 0 W/m2
04:00 31.7 °F /  -0.2 °C 29.6 °F /  -1.3 °C 29.82in /  1009.7hPa Calm     92% 0.00in /  0mm 0 W/m2
04:10 32.3 °F /  0.2 °C 30.2 °F /  -1 °C 29.82in /  1009.7hPa SE 1.0mph /  1.6km/h 2.0mph /  3.2km/h 92% 0.00in /  0mm 0 W/m2
04:16 32.5 °F /  0.3 °C 30.4 °F /  -0.9 °C 29.81in /  1009.4hPa SE 1.0mph /  1.6km/h 2.0mph /  3.2km/h 92% 0.00in /  0mm 0 W/m2
04:22 32.7 °F /  0.4 °C 30.6 °F /  -0.8 °C 29.81in /  1009.4hPa Calm     92% 0.00in /  0mm 0 W/m2
04:28 32.8 °F /  0.4 °C 30.7 °F /  -0.7 °C 29.82in /  1009.7hPa Calm     92% 0.00in /  0mm 0 W/m2
04:34 32.8 °F /  0.4 °C 30.7 °F /  -0.7 °C 29.81in /  1009.4hPa Calm     92% 0.00in /  0mm 0 W/m2
04:40 32.6 °F /  0.3 °C 30.5 °F /  -0.8 °C 29.82in /  1009.7hPa Calm     92% 0.00in /  0mm 0 W/m2
04:46 32.6 °F /  0.3 °C 30.5 °F /  -0.8 °C 29.81in /  1009.4hPa Calm     92% 0.00in /  0mm 0 W/m2
04:52 32.5 °F /  0.3 °C 30.4 °F /  -0.9 °C 29.80in /  1009hPa Calm   2.0mph /  3.2km/h 92% 0.00in /  0mm 0 W/m2
04:58 32.4 °F /  0.2 °C 30.3 °F /  -0.9 °C 29.80in /  1009hPa Calm   2.0mph /  3.2km/h 92% 0.00in /  0mm 0 W/m2
05:04 32.5 °F /  0.3 °C 30.4 °F /  -0.9 °C 29.80in /  1009hPa Calm   1.0mph /  1.6km/h 92% 0.00in /  0mm 0 W/m2
05:10 32.6 °F /  0.3 °C 30.5 °F /  -0.8 °C 29.80in /  1009hPa Calm     92% 0.00in /  0mm 0 W/m2
05:16 32.7 °F /  0.4 °C 30.6 °F /  -0.8 °C 29.80in /  1009hPa Calm     92% 0.00in /  0mm 0 W/m2
05:22 32.9 °F /  0.5 °C 30.8 °F /  -0.7 °C 29.80in /  1009hPa Calm     92% 0.00in /  0mm 0 W/m2
05:28 32.9 °F /  0.5 °C 30.8 °F /  -0.7 °C 29.79in /  1008.7hPa Calm   1.0mph /  1.6km/h 92% 0.00in /  0mm 0 W/m2
05:34 33.2 °F /  0.7 °C 31.1 °F /  -0.5 °C 29.80in /  1009hPa Calm     92% 0.00in /  0mm 0 W/m2
05:40 33.6 °F /  0.9 °C 31.5 °F /  -0.3 °C 29.79in /  1008.7hPa Calm     92% 0.00in /  0mm 0 W/m2
05:46 33.6 °F /  0.9 °C 31.5 °F /  -0.3 °C 29.79in /  1008.7hPa Calm   1.0mph /  1.6km/h 92% 0.00in /  0mm 0 W/m2
05:52 33.6 °F /  0.9 °C 31.5 °F /  -0.3 °C 29.78in /  1008.4hPa Calm     92% 0.00in /  0mm 0 W/m2
05:58 33.6 °F /  0.9 °C 31.5 °F /  -0.3 °C 29.78in /  1008.4hPa Calm     92% 0.00in /  0mm 0 W/m2
06:04 33.7 °F /  0.9 °C 31.6 °F /  -0.2 °C 29.78in /  1008.4hPa Calm   2.0mph /  3.2km/h 92% 0.00in /  0mm 0 W/m2
06:10 33.5 °F /  0.8 °C 31.4 °F /  -0.3 °C 29.77in /  1008hPa Calm     92% 0.00in /  0mm 0 W/m2
06:16 33.3 °F /  0.7 °C 31.2 °F /  -0.4 °C 29.77in /  1008hPa Calm     92% 0.00in /  0mm 0 W/m2
06:22 33.5 °F /  0.8 °C 31.4 °F /  -0.3 °C 29.77in /  1008hPa Calm     92% 0.00in /  0mm 0 W/m2
06:28 34.0 °F /  1.1 °C 31.9 °F /  -0.1 °C 29.77in /  1008hPa Calm     92% 0.00in /  0mm 0 W/m2
06:34 33.7 °F /  0.9 °C 31.6 °F /  -0.2 °C 29.76in /  1007.7hPa Calm     92% 0.00in /  0mm 0 W/m2
06:40 33.7 °F /  0.9 °C 31.6 °F /  -0.2 °C 29.76in /  1007.7hPa Calm     92% 0.00in /  0mm 0 W/m2
06:46 33.6 °F /  0.9 °C 31.5 °F /  -0.3 °C 29.75in /  1007.3hPa Calm     92% 0.00in /  0mm 0 W/m2
06:52 33.6 °F /  0.9 °C 31.5 °F /  -0.3 °C 29.75in /  1007.3hPa Calm     92% 0.00in /  0mm 0 W/m2
06:58 33.7 °F /  0.9 °C 31.6 °F /  -0.2 °C 29.76in /  1007.7hPa Calm     92% 0.00in /  0mm 0 W/m2
07:04 34.0 °F /  1.1 °C 31.9 °F /  -0.1 °C 29.76in /  1007.7hPa Calm     92% 0.00in /  0mm 0 W/m2
07:10 33.9 °F /  1.1 °C 31.8 °F /  -0.1 °C 29.76in /  1007.7hPa Calm     92% 0.00in /  0mm 5 W/m2
07:16 34.1 °F /  1.2 °C 32.0 °F /  0 °C 29.75in /  1007.3hPa Calm     92% 0.00in /  0mm 7 W/m2
07:22 34.1 °F /  1.2 °C 32.0 °F /  0 °C 29.76in /  1007.7hPa Calm     92% 0.00in /  0mm 7 W/m2
07:28 34.0 °F /  1.1 °C 31.6 °F /  -0.2 °C 29.76in /  1007.7hPa Calm     91% 0.00in /  0mm 7 W/m2
07:34 33.9 °F /  1.1 °C 31.6 °F /  -0.2 °C 29.76in /  1007.7hPa Calm     91% 0.00in /  0mm 7 W/m2
07:40 34.2 °F /  1.2 °C 31.8 °F /  -0.1 °C 29.74in /  1007hPa South 1.0mph /  1.6km/h 1.0mph /  1.6km/h 91% 0.00in /  0mm 28 W/m2
07:46 34.6 °F /  1.4 °C 32.5 °F /  0.3 °C 29.75in /  1007.3hPa South 1.0mph /  1.6km/h 1.0mph /  1.6km/h 92% 0.00in /  0mm 28 W/m2
07:52 35.2 °F /  1.8 °C 33.1 °F /  0.6 °C 29.74in /  1007hPa SE 1.0mph /  1.6km/h 2.0mph /  3.2km/h 92% 0.00in /  0mm 47 W/m2
07:58 35.6 °F /  2 °C 33.5 °F /  0.8 °C 29.74in /  1007hPa SE 1.0mph /  1.6km/h 2.0mph /  3.2km/h 92% 0.00in /  0mm 56 W/m2
08:04 35.7 °F /  2.1 °C 33.6 °F /  0.9 °C 29.74in /  1007hPa Calm   1.0mph /  1.6km/h 92% 0.00in /  0mm 60 W/m2
08:10 36.0 °F /  2.2 °C 33.9 °F /  1.1 °C 29.74in /  1007hPa Calm     92% 0.00in /  0mm 83 W/m2
08:16 36.6 °F /  2.6 °C 34.5 °F /  1.4 °C 29.73in /  1006.7hPa Calm   1.0mph /  1.6km/h 92% 0.00in /  0mm 83 W/m2
08:22 37.4 °F /  3 °C 35.3 °F /  1.8 °C 29.72in /  1006.3hPa SE 1.0mph /  1.6km/h 1.0mph /  1.6km/h 92% 0.00in /  0mm 95 W/m2
08:28 39.8 °F /  4.3 °C 37.7 °F /  3.2 °C 29.73in /  1006.7hPa SSE 1.0mph /  1.6km/h 2.0mph /  3.2km/h 92% 0.00in /  0mm 58 W/m2
08:34 41.7 °F /  5.4 °C 39.5 °F /  4.2 °C 29.72in /  1006.3hPa SSE 1.0mph /  1.6km/h 1.0mph /  1.6km/h 92% 0.00in /  0mm 88 W/m2
08:40 43.5 °F /  6.4 °C 41.3 °F /  5.2 °C 29.72in /  1006.3hPa South 2.0mph /  3.2km/h 2.0mph /  3.2km/h 92% 0.00in /  0mm 83 W/m2
08:46 45.0 °F /  7.2 °C 42.8 °F /  6 °C 29.72in /  1006.3hPa SSW 2.0mph /  3.2km/h 4.0mph /  6.4km/h 92% 0.00in /  0mm 56 W/m2
08:52 45.8 °F /  7.7 °C 43.3 °F /  6.3 °C 29.72in /  1006.3hPa South 3.0mph /  4.8km/h 3.0mph /  4.8km/h 91% 0.00in /  0mm 63 W/m2
08:58 46.2 °F /  7.9 °C 43.4 °F /  6.3 °C 29.71in /  1006hPa South 2.0mph /  3.2km/h 3.0mph /  4.8km/h 90% 0.00in /  0mm 86 W/m2
09:04 46.7 °F /  8.2 °C 43.6 °F /  6.4 °C 29.72in /  1006.3hPa South 2.0mph /  3.2km/h 3.0mph /  4.8km/h 89% 0.00in /  0mm 54 W/m2
09:10 46.9 °F /  8.3 °C 43.5 °F /  6.4 °C 29.72in /  1006.3hPa South 1.0mph /  1.6km/h 1.0mph /  1.6km/h 88% 0.00in /  0mm 60 W/m2
09:16 47.0 °F /  8.3 °C 43.3 °F /  6.3 °C 29.71in /  1006hPa South 2.0mph /  3.2km/h 3.0mph /  4.8km/h 87% 0.00in /  0mm 58 W/m2
09:22 46.8 °F /  8.2 °C 42.8 °F /  6 °C 29.71in /  1006hPa South 2.0mph /  3.2km/h 2.0mph /  3.2km/h 86% 0.00in /  0mm 70 W/m2
09:28 47.1 °F /  8.4 °C 42.8 °F /  6 °C 29.71in /  1006hPa South 1.0mph /  1.6km/h 2.0mph /  3.2km/h 85% 0.00in /  0mm 77 W/m2
09:34 47.4 °F /  8.6 °C 43.1 °F /  6.2 °C 29.71in /  1006hPa SE 1.0mph /  1.6km/h 2.0mph /  3.2km/h 85% 0.00in /  0mm 51 W/m2
09:40 47.6 °F /  8.7 °C 43.3 °F /  6.3 °C 29.70in /  1005.6hPa SSW 1.0mph /  1.6km/h 1.0mph /  1.6km/h 85% 0.00in /  0mm 56 W/m2
09:46 47.7 °F /  8.7 °C 43.1 °F /  6.2 °C 29.70in /  1005.6hPa SSW 1.0mph /  1.6km/h 3.0mph /  4.8km/h 84% 0.00in /  0mm 63 W/m2
09:52 48.0 °F /  8.9 °C 43.4 °F /  6.3 °C 29.70in /  1005.6hPa SSW 1.0mph /  1.6km/h 1.0mph /  1.6km/h 84% 0.00in /  0mm 70 W/m2
09:58 48.1 °F /  8.9 °C 43.5 °F /  6.4 °C 29.70in /  1005.6hPa South 1.0mph /  1.6km/h 1.0mph /  1.6km/h 84% 0.00in /  0mm 58 W/m2
10:04 48.3 °F /  9.1 °C 43.4 °F /  6.3 °C 29.70in /  1005.6hPa South 1.0mph /  1.6km/h 1.0mph /  1.6km/h 83% 0.00in /  0mm 63 W/m2
10:10 48.3 °F /  9.1 °C 43.4 °F /  6.3 °C 29.70in /  1005.6hPa Calm   1.0mph /  1.6km/h 83% 0.00in /  0mm 98 W/m2
10:16 48.3 °F /  9.1 °C 43.4 °F /  6.3 °C 29.69in /  1005.3hPa Calm   2.0mph /  3.2km/h 83% 0.00in /  0mm 174 W/m2
10:22 49.0 °F /  9.4 °C 44.1 °F /  6.7 °C 29.70in /  1005.6hPa SSE 1.0mph /  1.6km/h 1.0mph /  1.6km/h 83% 0.00in /  0mm 213 W/m2
10:24 49.2 °F /  9.6 °C 44.3 °F /  6.8 °C 29.70in /  1005.6hPa SSE 1.0mph /  1.6km/h 1.0mph /  1.6km/h 83% 0.00in /  0mm 192 W/m2
10:30 49.8 °F /  9.9 °C 44.2 °F /  6.8 °C 29.69in /  1005.3hPa Calm     81% 0.00in /  0mm 271 W/m2
10:36 50.3 °F /  10.2 °C 44.4 °F /  6.9 °C 29.69in /  1005.3hPa Calm   1.0mph /  1.6km/h 80% 0.00in /  0mm 246 W/m2
10:42 51.0 °F /  10.6 °C 44.7 °F /  7.1 °C 29.69in /  1005.3hPa SSE 1.0mph /  1.6km/h 3.0mph /  4.8km/h 79% 0.00in /  0mm 179 W/m2
10:48 51.6 °F /  10.9 °C 45.0 °F /  7.2 °C 29.69in /  1005.3hPa SSE 1.0mph /  1.6km/h 3.0mph /  4.8km/h 78% 0.00in /  0mm 253 W/m2
10:54 51.9 °F /  11.1 °C 44.9 °F /  7.2 °C 29.69in /  1005.3hPa SSW 2.0mph /  3.2km/h 4.0mph /  6.4km/h 77% 0.00in /  0mm 237 W/m2
11:00 52.4 °F /  11.3 °C 45.4 °F /  7.4 °C 29.69in /  1005.3hPa West 3.0mph /  4.8km/h 3.0mph /  4.8km/h 77% 0.00in /  0mm 279 W/m2
11:06 52.9 °F /  11.6 °C 45.5 °F /  7.5 °C 29.69in /  1005.3hPa SSW 3.0mph /  4.8km/h 3.0mph /  4.8km/h 76% 0.00in /  0mm 278 W/m2
11:12 53.5 °F /  11.9 °C 45.8 °F /  7.7 °C 29.69in /  1005.3hPa South 3.0mph /  4.8km/h 3.0mph /  4.8km/h 75% 0.00in /  0mm 301 W/m2
11:18 53.9 °F /  12.2 °C 45.8 °F /  7.7 °C 29.69in /  1005.3hPa SW 3.0mph /  4.8km/h 4.0mph /  6.4km/h 74% 0.00in /  0mm 271 W/m2
11:24 54.0 °F /  12.2 °C 45.5 °F /  7.5 °C 29.69in /  1005.3hPa WSW 4.0mph /  6.4km/h 4.0mph /  6.4km/h 73% 0.00in /  0mm 308 W/m2
11:30 54.3 °F /  12.4 °C 45.8 °F /  7.7 °C 29.69in /  1005.3hPa West 4.0mph /  6.4km/h 5.0mph /  8km/h 73% 0.00in /  0mm 381 W/m2
11:36 54.5 °F /  12.5 °C 45.7 °F /  7.6 °C 29.69in /  1005.3hPa NW 4.0mph /  6.4km/h 7.0mph /  11.3km/h 72% 0.00in /  0mm 281 W/m2
11:42 55.0 °F /  12.8 °C 45.8 °F /  7.7 °C 29.69in /  1005.3hPa SW 4.0mph /  6.4km/h 4.0mph /  6.4km/h 71% 0.00in /  0mm 640 W/m2
11:48 55.5 °F /  13.1 °C 45.9 °F /  7.7 °C 29.68in /  1005hPa West 5.0mph /  8km/h 5.0mph /  8km/h 70% 0.00in /  0mm 561 W/m2
11:54 55.7 °F /  13.2 °C 45.7 °F /  7.6 °C 29.68in /  1005hPa SSW 6.0mph /  9.7km/h 8.0mph /  12.9km/h 69% 0.00in /  0mm 547 W/m2
12:00 55.8 °F /  13.2 °C 45.8 °F /  7.7 °C 29.67in /  1004.6hPa WNW 7.0mph /  11.3km/h 7.0mph /  11.3km/h 69% 0.00in /  0mm 548 W/m2
12:06 56.0 °F /  13.3 °C 45.6 °F /  7.6 °C 29.67in /  1004.6hPa West 6.0mph /  9.7km/h 9.0mph /  14.5km/h 68% 0.00in /  0mm 608 W/m2
12:12 56.4 °F /  13.6 °C 45.6 °F /  7.6 °C 29.67in /  1004.6hPa WNW 6.0mph /  9.7km/h 14.0mph /  22.5km/h 67% 0.00in /  0mm 573 W/m2
12:18 56.5 °F /  13.6 °C 45.3 °F /  7.4 °C 29.67in /  1004.6hPa WSW 6.0mph /  9.7km/h 14.0mph /  22.5km/h 66% 0.00in /  0mm 557 W/m2
12:24 56.8 °F /  13.8 °C 45.6 °F /  7.6 °C 29.67in /  1004.6hPa West 5.0mph /  8km/h 6.0mph /  9.7km/h 66% 0.00in /  0mm 529 W/m2
12:30 56.8 °F /  13.8 °C 45.2 °F /  7.3 °C 29.66in /  1004.3hPa West 6.0mph /  9.7km/h 6.0mph /  9.7km/h 65% 0.00in /  0mm 533 W/m2
12:36 57.2 °F /  14 °C 45.1 °F /  7.3 °C 29.67in /  1004.6hPa SW 5.0mph /  8km/h 7.0mph /  11.3km/h 64% 0.00in /  0mm 455 W/m2
12:42 57.1 °F /  13.9 °C 44.6 °F /  7 °C 29.67in /  1004.6hPa WSW 5.0mph /  8km/h 5.0mph /  8km/h 63% 0.00in /  0mm 385 W/m2
12:48 57.0 °F /  13.9 °C 44.1 °F /  6.7 °C 29.66in /  1004.3hPa West 5.0mph /  8km/h 9.0mph /  14.5km/h 62% 0.00in /  0mm 418 W/m2
12:54 57.2 °F /  14 °C 43.9 °F /  6.6 °C 29.66in /  1004.3hPa West 5.0mph /  8km/h 9.0mph /  14.5km/h 61% 0.00in /  0mm 450 W/m2
13:00 57.2 °F /  14 °C 43.4 °F /  6.3 °C 29.66in /  1004.3hPa West 5.0mph /  8km/h 5.0mph /  8km/h 60% 0.00in /  0mm 401 W/m2
13:06 57.2 °F /  14 °C 43.4 °F /  6.3 °C 29.66in /  1004.3hPa WSW 4.0mph /  6.4km/h 6.0mph /  9.7km/h 60% 0.00in /  0mm 427 W/m2
13:12 57.3 °F /  14.1 °C 43.1 °F /  6.2 °C 29.66in /  1004.3hPa WSW 4.0mph /  6.4km/h 13.0mph /  20.9km/h 59% 0.00in /  0mm 360 W/m2
13:18 57.5 °F /  14.2 °C 42.8 °F /  6 °C 29.66in /  1004.3hPa WSW 4.0mph /  6.4km/h 13.0mph /  20.9km/h 58% 0.00in /  0mm 360 W/m2
13:24 57.5 °F /  14.2 °C 42.8 °F /  6 °C 29.66in /  1004.3hPa West 4.0mph /  6.4km/h 4.0mph /  6.4km/h 58% 0.00in /  0mm 343 W/m2
13:30 57.7 °F /  14.3 °C 43.0 °F /  6.1 °C 29.65in /  1003.9hPa WSW 3.0mph /  4.8km/h 3.0mph /  4.8km/h 58% 0.00in /  0mm 359 W/m2
13:36 57.7 °F /  14.3 °C 42.6 °F /  5.9 °C 29.65in /  1003.9hPa WNW 3.0mph /  4.8km/h 5.0mph /  8km/h 57% 0.00in /  0mm 367 W/m2
13:42 57.6 °F /  14.2 °C 42.9 °F /  6.1 °C 29.65in /  1003.9hPa WSW 5.0mph /  8km/h 9.0mph /  14.5km/h 58% 0.00in /  0mm 339 W/m2
13:48 57.4 °F /  14.1 °C 42.7 °F /  5.9 °C 29.65in /  1003.9hPa WSW 5.0mph /  8km/h 9.0mph /  14.5km/h 58% 0.00in /  0mm 288 W/m2
13:54 57.1 °F /  13.9 °C 42.5 °F /  5.8 °C 29.65in /  1003.9hPa WSW 4.0mph /  6.4km/h 7.0mph /  11.3km/h 58% 0.00in /  0mm 255 W/m2
14:00 57.0 °F /  13.9 °C 42.8 °F /  6 °C 29.65in /  1003.9hPa West 4.0mph /  6.4km/h 6.0mph /  9.7km/h 59% 0.00in /  0mm 223 W/m2
14:06 56.8 °F /  13.8 °C 42.6 °F /  5.9 °C 29.65in /  1003.9hPa West 4.0mph /  6.4km/h 4.0mph /  6.4km/h 59% 0.00in /  0mm 188 W/m2
14:12 56.6 °F /  13.7 °C 42.9 °F /  6.1 °C 29.64in /  1003.6hPa WSW 4.0mph /  6.4km/h 4.0mph /  6.4km/h 60% 0.00in /  0mm 165 W/m2
14:18 56.5 °F /  13.6 °C 42.8 °F /  6 °C 29.65in /  1003.9hPa WSW 4.0mph /  6.4km/h 5.0mph /  8km/h 60% 0.00in /  0mm 151 W/m2
14:24 56.3 °F /  13.5 °C 43.0 °F /  6.1 °C 29.65in /  1003.9hPa WSW 4.0mph /  6.4km/h 10.0mph /  16.1km/h 61% 0.00in /  0mm 149 W/m2
14:30 56.3 °F /  13.5 °C 43.0 °F /  6.1 °C 29.65in /  1003.9hPa WSW 4.0mph /  6.4km/h 4.0mph /  6.4km/h 61% 0.00in /  0mm 144 W/m2
14:36 56.0 °F /  13.3 °C 42.7 °F /  5.9 °C 29.65in /  1003.9hPa WSW 3.0mph /  4.8km/h 7.0mph /  11.3km/h 61% 0.00in /  0mm 165 W/m2
14:42 56.0 °F /  13.3 °C 43.2 °F /  6.2 °C 29.65in /  1003.9hPa SSW 3.0mph /  4.8km/h 7.0mph /  11.3km/h 62% 0.00in /  0mm 188 W/m2
14:48 56.0 °F /  13.3 °C 43.2 °F /  6.2 °C 29.65in /  1003.9hPa SSW 3.0mph /  4.8km/h 9.0mph /  14.5km/h 62% 0.00in /  0mm 199 W/m2
14:54 56.1 °F /  13.4 °C 43.3 °F /  6.3 °C 29.64in /  1003.6hPa West 4.0mph /  6.4km/h 4.0mph /  6.4km/h 62% 0.00in /  0mm 181 W/m2
15:00 56.1 °F /  13.4 °C 43.7 °F /  6.5 °C 29.64in /  1003.6hPa WSW 4.0mph /  6.4km/h 4.0mph /  6.4km/h 63% 0.00in /  0mm 169 W/m2
15:06 56.0 °F /  13.3 °C 43.6 °F /  6.4 °C 29.64in /  1003.6hPa West 3.0mph /  4.8km/h 4.0mph /  6.4km/h 63% 0.00in /  0mm 279 W/m2
15:12 56.4 °F /  13.6 °C 44.0 °F /  6.7 °C 29.64in /  1003.6hPa WSW 4.0mph /  6.4km/h 4.0mph /  6.4km/h 63% 0.00in /  0mm 183 W/m2
15:18 56.2 °F /  13.4 °C 43.8 °F /  6.6 °C 29.63in /  1003.3hPa West 5.0mph /  8km/h 7.0mph /  11.3km/h 63% 0.00in /  0mm 137 W/m2
15:24 56.1 °F /  13.4 °C 44.1 °F /  6.7 °C 29.63in /  1003.3hPa SW 5.0mph /  8km/h 5.0mph /  8km/h 64% 0.00in /  0mm 174 W/m2
15:30 56.0 °F /  13.3 °C 44.0 °F /  6.7 °C 29.63in /  1003.3hPa SSW 4.0mph /  6.4km/h 7.0mph /  11.3km/h 64% 0.00in /  0mm 163 W/m2
15:36 56.0 °F /  13.3 °C 44.0 °F /  6.7 °C 29.63in /  1003.3hPa West 4.0mph /  6.4km/h 7.0mph /  11.3km/h 64% 0.00in /  0mm 144 W/m2
15:42 55.9 °F /  13.3 °C 43.9 °F /  6.6 °C 29.63in /  1003.3hPa SW 3.0mph /  4.8km/h 3.0mph /  4.8km/h 64% 0.00in /  0mm 100 W/m2
15:48 55.9 °F /  13.3 °C 43.9 °F /  6.6 °C 29.63in /  1003.3hPa SW 3.0mph /  4.8km/h 5.0mph /  8km/h 64% 0.00in /  0mm 134 W/m2
15:54 55.9 °F /  13.3 °C 43.9 °F /  6.6 °C 29.63in /  1003.3hPa WSW 3.0mph /  4.8km/h 3.0mph /  4.8km/h 64% 0.00in /  0mm 123 W/m2
16:00 55.8 °F /  13.2 °C 43.8 °F /  6.6 °C 29.63in /  1003.3hPa West 2.0mph /  3.2km/h 7.0mph /  11.3km/h 64% 0.00in /  0mm 104 W/m2
16:06 55.6 °F /  13.1 °C 44.0 °F /  6.7 °C 29.63in /  1003.3hPa West 2.0mph /  3.2km/h 7.0mph /  11.3km/h 65% 0.00in /  0mm 74 W/m2
16:14 55.5 °F /  13.1 °C 43.9 °F /  6.6 °C 29.62in /  1002.9hPa West 2.0mph /  3.2km/h 2.0mph /  3.2km/h 65% 0.00in /  0mm 77 W/m2
16:22 55.5 °F /  13.1 °C 44.3 °F /  6.8 °C 29.62in /  1002.9hPa SW 2.0mph /  3.2km/h 3.0mph /  4.8km/h 66% 0.00in /  0mm 58 W/m2
16:28 55.3 °F /  12.9 °C 44.1 °F /  6.7 °C 29.62in /  1002.9hPa WSW 2.0mph /  3.2km/h 3.0mph /  4.8km/h 66% 0.00in /  0mm 51 W/m2
16:34 55.2 °F /  12.9 °C 44.0 °F /  6.7 °C 29.62in /  1002.9hPa WSW 1.0mph /  1.6km/h 2.0mph /  3.2km/h 66% 0.00in /  0mm 40 W/m2
16:40 55.1 °F /  12.8 °C 44.3 °F /  6.8 °C 29.62in /  1002.9hPa WSW 1.0mph /  1.6km/h 2.0mph /  3.2km/h 67% 0.00in /  0mm 39 W/m2
16:46 54.8 °F /  12.7 °C 44.0 °F /  6.7 °C 29.62in /  1002.9hPa WSW 1.0mph /  1.6km/h 2.0mph /  3.2km/h 67% 0.00in /  0mm 35 W/m2
16:52 54.6 °F /  12.6 °C 43.9 °F /  6.6 °C 29.63in /  1003.3hPa Calm   1.0mph /  1.6km/h 67% 0.00in /  0mm 26 W/m2
16:58 54.2 °F /  12.3 °C 43.9 °F /  6.6 °C 29.63in /  1003.3hPa Calm   1.0mph /  1.6km/h 68% 0.00in /  0mm 19 W/m2
17:04 54.0 °F /  12.2 °C 44.1 °F /  6.7 °C 29.64in /  1003.6hPa Calm     69% 0.00in /  0mm 9 W/m2
17:10 53.8 °F /  12.1 °C 43.9 °F /  6.6 °C 29.64in /  1003.6hPa WSW 1.0mph /  1.6km/h 1.0mph /  1.6km/h 69% 0.00in /  0mm 5 W/m2
17:16 53.6 °F /  12 °C 43.7 °F /  6.5 °C 29.64in /  1003.6hPa Calm   1.0mph /  1.6km/h 69% 0.00in /  0mm 5 W/m2
17:22 53.2 °F /  11.8 °C 43.7 °F /  6.5 °C 29.63in /  1003.3hPa Calm     70% 0.00in /  0mm 0 W/m2
17:28 52.9 °F /  11.6 °C 43.4 °F /  6.3 °C 29.63in /  1003.3hPa Calm   1.0mph /  1.6km/h 70% 0.00in /  0mm 0 W/m2
17:34 52.5 °F /  11.4 °C 43.4 °F /  6.3 °C 29.64in /  1003.6hPa Calm   1.0mph /  1.6km/h 71% 0.00in /  0mm 0 W/m2
17:40 52.1 °F /  11.2 °C 43.0 °F /  6.1 °C 29.64in /  1003.6hPa Calm     71% 0.00in /  0mm 0 W/m2
17:46 51.2 °F /  10.7 °C 42.1 °F /  5.6 °C 29.63in /  1003.3hPa Calm     71% 0.00in /  0mm 0 W/m2
17:52 50.3 °F /  10.2 °C 42.0 °F /  5.6 °C 29.63in /  1003.3hPa Calm   1.0mph /  1.6km/h 73% 0.00in /  0mm 0 W/m2
17:58 50.2 °F /  10.1 °C 42.2 °F /  5.7 °C 29.63in /  1003.3hPa WSW 1.0mph /  1.6km/h 1.0mph /  1.6km/h 74% 0.00in /  0mm 0 W/m2
18:04 50.5 °F /  10.3 °C 42.9 °F /  6.1 °C 29.63in /  1003.3hPa Calm     75% 0.00in /  0mm 0 W/m2
18:10 51.0 °F /  10.6 °C 43.0 °F /  6.1 °C 29.63in /  1003.3hPa Calm     74% 0.00in /  0mm 0 W/m2
18:16 50.9 °F /  10.5 °C 42.9 °F /  6.1 °C 29.63in /  1003.3hPa Calm   1.0mph /  1.6km/h 74% 0.00in /  0mm 0 W/m2
18:22 50.8 °F /  10.4 °C 42.8 °F /  6 °C 29.63in /  1003.3hPa Calm   2.0mph /  3.2km/h 74% 0.00in /  0mm 0 W/m2
18:28 50.5 °F /  10.3 °C 42.5 °F /  5.8 °C 29.63in /  1003.3hPa Calm   2.0mph /  3.2km/h 74% 0.00in /  0mm 0 W/m2
18:34 50.2 °F /  10.1 °C 42.6 °F /  5.9 °C 29.63in /  1003.3hPa Calm     75% 0.00in /  0mm 0 W/m2
18:40 50.1 °F /  10.1 °C 42.8 °F /  6 °C 29.63in /  1003.3hPa Calm   1.0mph /  1.6km/h 76% 0.00in /  0mm 0 W/m2
18:46 50.4 °F /  10.2 °C 43.1 °F /  6.2 °C 29.62in /  1002.9hPa WSW 1.0mph /  1.6km/h 1.0mph /  1.6km/h 76% 0.00in /  0mm 0 W/m2
18:52 50.7 °F /  10.4 °C 43.8 °F /  6.6 °C 29.62in /  1002.9hPa South 1.0mph /  1.6km/h 2.0mph /  3.2km/h 77% 0.00in /  0mm 0 W/m2
18:58 51.0 °F /  10.6 °C 43.7 °F /  6.5 °C 29.62in /  1002.9hPa South 1.0mph /  1.6km/h 2.0mph /  3.2km/h 76% 0.00in /  0mm 0 W/m2
19:04 50.7 °F /  10.4 °C 43.8 °F /  6.6 °C 29.62in /  1002.9hPa South 1.0mph /  1.6km/h 1.0mph /  1.6km/h 77% 0.00in /  0mm 0 W/m2
19:10 50.5 °F /  10.3 °C 43.9 °F /  6.6 °C 29.61in /  1002.6hPa Calm   2.0mph /  3.2km/h 78% 0.00in /  0mm 0 W/m2
19:16 50.6 °F /  10.3 °C 44.0 °F /  6.7 °C 29.61in /  1002.6hPa South 1.0mph /  1.6km/h 2.0mph /  3.2km/h 78% 0.00in /  0mm 0 W/m2
19:22 50.5 °F /  10.3 °C 43.9 °F /  6.6 °C 29.61in /  1002.6hPa Calm     78% 0.00in /  0mm 0 W/m2
19:28 49.8 °F /  9.9 °C 43.5 °F /  6.4 °C 29.61in /  1002.6hPa Calm     79% 0.00in /  0mm 0 W/m2
19:34 49.2 °F /  9.6 °C 43.3 °F /  6.3 °C 29.61in /  1002.6hPa Calm   1.0mph /  1.6km/h 80% 0.00in /  0mm 0 W/m2
19:40 48.9 °F /  9.4 °C 43.3 °F /  6.3 °C 29.60in /  1002.3hPa Calm     81% 0.00in /  0mm 0 W/m2
19:46 48.4 °F /  9.1 °C 42.8 °F /  6 °C 29.60in /  1002.3hPa Calm     81% 0.00in /  0mm 0 W/m2
19:52 47.2 °F /  8.4 °C 41.7 °F /  5.4 °C 29.59in /  1001.9hPa Calm     81% 0.00in /  0mm 0 W/m2
19:58 46.0 °F /  7.8 °C 40.8 °F /  4.9 °C 29.59in /  1001.9hPa Calm     82% 0.00in /  0mm 0 W/m2
20:04 45.4 °F /  7.4 °C 40.5 °F /  4.7 °C 29.59in /  1001.9hPa Calm   1.0mph /  1.6km/h 83% 0.00in /  0mm 0 W/m2
20:10 44.6 °F /  7 °C 39.8 °F /  4.3 °C 29.59in /  1001.9hPa Calm     83% 0.00in /  0mm 0 W/m2
20:16 43.7 °F /  6.5 °C 39.2 °F /  4 °C 29.59in /  1001.9hPa Calm     84% 0.00in /  0mm 0 W/m2
20:22 43.0 °F /  6.1 °C 38.5 °F /  3.6 °C 29.58in /  1001.6hPa Calm     84% 0.00in /  0mm 0 W/m2
20:28 42.8 °F /  6 °C 38.9 °F /  3.8 °C 29.58in /  1001.6hPa Calm     86% 0.00in /  0mm 0 W/m2
20:34 42.8 °F /  6 °C 39.2 °F /  4 °C 29.58in /  1001.6hPa Calm     87% 0.00in /  0mm 0 W/m2
20:40 42.3 °F /  5.7 °C 38.7 °F /  3.7 °C 29.58in /  1001.6hPa Calm     87% 0.00in /  0mm 0 W/m2
20:46 42.0 °F /  5.6 °C 38.7 °F /  3.7 °C 29.57in /  1001.2hPa Calm     88% 0.00in /  0mm 0 W/m2
20:52 41.9 °F /  5.5 °C 38.6 °F /  3.7 °C 29.57in /  1001.2hPa Calm     88% 0.00in /  0mm 0 W/m2
20:58 41.6 °F /  5.3 °C 38.3 °F /  3.5 °C 29.58in /  1001.6hPa Calm     88% 0.00in /  0mm 0 W/m2
21:04 41.5 °F /  5.3 °C 38.5 °F /  3.6 °C 29.57in /  1001.2hPa Calm     89% 0.00in /  0mm 0 W/m2
21:10 41.3 °F /  5.2 °C 38.3 °F /  3.5 °C 29.58in /  1001.6hPa Calm     89% 0.00in /  0mm 0 W/m2
21:16 41.1 °F /  5.1 °C 38.1 °F /  3.4 °C 29.58in /  1001.6hPa Calm     89% 0.00in /  0mm 0 W/m2
21:22 40.8 °F /  4.9 °C 37.8 °F /  3.2 °C 29.58in /  1001.6hPa Calm     89% 0.00in /  0mm 0 W/m2
21:28 40.4 °F /  4.7 °C 37.4 °F /  3 °C 29.58in /  1001.6hPa Calm   1.0mph /  1.6km/h 89% 0.00in /  0mm 0 W/m2
21:34 40.2 °F /  4.6 °C 37.2 °F /  2.9 °C 29.59in /  1001.9hPa Calm     89% 0.00in /  0mm 0 W/m2
21:40 40.6 °F /  4.8 °C 37.9 °F /  3.3 °C 29.58in /  1001.6hPa Calm     90% 0.00in /  0mm 0 W/m2
21:46 40.9 °F /  4.9 °C 38.2 °F /  3.4 °C 29.58in /  1001.6hPa Calm     90% 0.00in /  0mm 0 W/m2
21:52 41.1 °F /  5.1 °C 38.4 °F /  3.6 °C 29.58in /  1001.6hPa Calm     90% 0.00in /  0mm 0 W/m2
21:58 41.3 °F /  5.2 °C 38.6 °F /  3.7 °C 29.58in /  1001.6hPa Calm     90% 0.00in /  0mm 0 W/m2
22:04 41.3 °F /  5.2 °C 38.6 °F /  3.7 °C 29.58in /  1001.6hPa Calm     90% 0.00in /  0mm 0 W/m2
22:10 41.5 °F /  5.3 °C 39.1 °F /  3.9 °C 29.58in /  1001.6hPa Calm     91% 0.00in /  0mm 0 W/m2
22:16 41.8 °F /  5.4 °C 39.4 °F /  4.1 °C 29.59in /  1001.9hPa Calm     91% 0.00in /  0mm 0 W/m2
22:22 41.6 °F /  5.3 °C 39.2 °F /  4 °C 29.59in /  1001.9hPa Calm   2.0mph /  3.2km/h 91% 0.00in /  0mm 0 W/m2
22:28 41.3 °F /  5.2 °C 38.9 °F /  3.8 °C 29.59in /  1001.9hPa South 1.0mph /  1.6km/h 2.0mph /  3.2km/h 91% 0.00in /  0mm 0 W/m2
22:34 42.9 °F /  6.1 °C 40.5 °F /  4.7 °C 29.59in /  1001.9hPa North 2.0mph /  3.2km/h 7.0mph /  11.3km/h 91% 0.00in /  0mm 0 W/m2
22:40 43.5 °F /  6.4 °C 41.3 °F /  5.2 °C 29.59in /  1001.9hPa NNE 3.0mph /  4.8km/h 3.0mph /  4.8km/h 92% 0.00in /  0mm 0 W/m2
22:46 44.2 °F /  6.8 °C 42.0 °F /  5.6 °C 29.58in /  1001.6hPa North 3.0mph /  4.8km/h 4.0mph /  6.4km/h 92% 0.00in /  0mm 0 W/m2
22:52 44.7 °F /  7.1 °C 42.5 °F /  5.8 °C 29.59in /  1001.9hPa NNW 3.0mph /  4.8km/h 3.0mph /  4.8km/h 92% 0.00in /  0mm 0 W/m2
22:58 44.7 °F /  7.1 °C 42.5 °F /  5.8 °C 29.59in /  1001.9hPa NNW 3.0mph /  4.8km/h 3.0mph /  4.8km/h 92% 0.00in /  0mm 0 W/m2
23:04 44.8 °F /  7.1 °C 42.6 °F /  5.9 °C 29.59in /  1001.9hPa NNW 2.0mph /  3.2km/h 4.0mph /  6.4km/h 92% 0.00in /  0mm 0 W/m2
23:10 44.9 °F /  7.2 °C 42.7 °F /  5.9 °C 29.59in /  1001.9hPa NNW 2.0mph /  3.2km/h 2.0mph /  3.2km/h 92% 0.00in /  0mm 0 W/m2
23:16 44.8 °F /  7.1 °C 42.6 °F /  5.9 °C 29.59in /  1001.9hPa NNW 1.0mph /  1.6km/h 3.0mph /  4.8km/h 92% 0.00in /  0mm 0 W/m2
23:22 44.8 °F /  7.1 °C 42.6 °F /  5.9 °C 29.59in /  1001.9hPa NW 2.0mph /  3.2km/h 3.0mph /  4.8km/h 92% 0.00in /  0mm 0 W/m2
23:28 45.2 °F /  7.3 °C 43.0 °F /  6.1 °C 29.61in /  1002.6hPa NW 4.0mph /  6.4km/h 6.0mph /  9.7km/h 92% 0.00in /  0mm 0 W/m2
23:34 45.1 °F /  7.3 °C 42.9 °F /  6.1 °C 29.61in /  1002.6hPa NNW 3.0mph /  4.8km/h 4.0mph /  6.4km/h 92% 0.00in /  0mm 0 W/m2
23:40 45.1 °F /  7.3 °C 42.9 °F /  6.1 °C 29.61in /  1002.6hPa NNW 3.0mph /  4.8km/h 3.0mph /  4.8km/h 92% 0.00in /  0mm 0 W/m2
23:46 44.9 °F /  7.2 °C 42.7 °F /  5.9 °C 29.61in /  1002.6hPa NNW 4.0mph /  6.4km/h 5.0mph /  8km/h 92% 0.00in /  0mm 0 W/m2
23:52 44.5 °F /  6.9 °C 42.3 °F /  5.7 °C 29.61in /  1002.6hPa NW 4.0mph /  6.4km/h 4.0mph /  6.4km/h 92% 0.00in /  0mm 0 W/m2
23:58 44.4 °F /  6.9 °C 42.2 °F /  5.7 °C 29.61in /  1002.6hPa NW 4.0mph /  6.4km/h 7.0mph /  11.3km/h 92% 0.00in /  0mm 0 W/m2
Country Meadow, Clay, NY, USA
Compliments of Weather Underground - 2 mb